sensor_id;sensor_type;location;lat;lon;timestamp;pressure;altitude;pressure_sealevel;temperature;humidity
62632;BME280;48703;51.248;-0.546;2023-03-03T00:02:51;102057;;;3.60;79.91
62632;BME280;48703;51.248;-0.546;2023-03-03T00:05:53;102061;;;3.59;79.82
62632;BME280;48703;51.248;-0.546;2023-03-03T00:08:55;102064;;;3.59;79.73
62632;BME280;48703;51.248;-0.546;2023-03-03T00:11:58;102069;;;3.59;79.55
62632;BME280;48703;51.248;-0.546;2023-03-03T00:14:59;102074;;;3.60;79.56
62632;BME280;48703;51.248;-0.546;2023-03-03T00:18:01;102075;;;3.61;79.54
62632;BME280;48703;51.248;-0.546;2023-03-03T00:21:04;102078;;;3.61;79.44
62632;BME280;48703;51.248;-0.546;2023-03-03T00:24:21;102078;;;3.61;79.42
62632;BME280;48703;51.248;-0.546;2023-03-03T00:27:09;102077;;;3.62;79.42
62632;BME280;48703;51.248;-0.546;2023-03-03T00:30:16;102074;;;3.63;79.76
62632;BME280;48703;51.248;-0.546;2023-03-03T00:33:12;102074;;;3.63;79.46
62632;BME280;48703;51.248;-0.546;2023-03-03T00:36:30;102073;;;3.64;79.55
62632;BME280;48703;51.248;-0.546;2023-03-03T00:39:20;102075;;;3.65;79.79
62632;BME280;48703;51.248;-0.546;2023-03-03T00:42:30;102079;;;3.65;79.75
62632;BME280;48703;51.248;-0.546;2023-03-03T00:45:25;102082;;;3.65;79.86
62632;BME280;48703;51.248;-0.546;2023-03-03T00:48:22;102085;;;3.66;79.81
62632;BME280;48703;51.248;-0.546;2023-03-03T00:51:25;102084;;;3.66;79.88
62632;BME280;48703;51.248;-0.546;2023-03-03T00:54:24;102086;;;3.68;79.97
62632;BME280;48703;51.248;-0.546;2023-03-03T00:57:26;102088;;;3.68;79.59
62632;BME280;48703;51.248;-0.546;2023-03-03T01:00:28;102087;;;3.69;79.85
62632;BME280;48703;51.248;-0.546;2023-03-03T01:03:30;102090;;;3.70;79.69
62632;BME280;48703;51.248;-0.546;2023-03-03T01:06:32;102093;;;3.71;79.70
62632;BME280;48703;51.248;-0.546;2023-03-03T01:09:34;102096;;;3.71;79.87
62632;BME280;48703;51.248;-0.546;2023-03-03T01:12:36;102098;;;3.73;79.84
62632;BME280;48703;51.248;-0.546;2023-03-03T01:15:39;102100;;;3.73;79.54
62632;BME280;48703;51.248;-0.546;2023-03-03T01:18:40;102100;;;3.73;79.75
62632;BME280;48703;51.248;-0.546;2023-03-03T01:21:41;102101;;;3.75;79.59
62632;BME280;48703;51.248;-0.546;2023-03-03T01:24:43;102104;;;3.76;79.37
62632;BME280;48703;51.248;-0.546;2023-03-03T01:27:45;102105;;;3.77;79.22
62632;BME280;48703;51.248;-0.546;2023-03-03T01:30:47;102104;;;3.78;79.07
62632;BME280;48703;51.248;-0.546;2023-03-03T01:33:49;102104;;;3.79;79.07
62632;BME280;48703;51.248;-0.546;2023-03-03T01:36:51;102105;;;3.80;79.07
62632;BME280;48703;51.248;-0.546;2023-03-03T01:39:53;102101;;;3.81;79.00
62632;BME280;48703;51.248;-0.546;2023-03-03T01:42:55;102105;;;3.82;79.29
62632;BME280;48703;51.248;-0.546;2023-03-03T01:46:58;102102;;;3.82;79.39
62632;BME280;48703;51.248;-0.546;2023-03-03T01:50:01;102101;;;3.83;79.36
62632;BME280;48703;51.248;-0.546;2023-03-03T01:53:02;102103;;;3.82;79.40
62632;BME280;48703;51.248;-0.546;2023-03-03T01:56:03;102102;;;3.83;79.41
62632;BME280;48703;51.248;-0.546;2023-03-03T01:59:06;102099;;;3.82;79.08
62632;BME280;48703;51.248;-0.546;2023-03-03T02:02:07;102096;;;3.82;79.23
62632;BME280;48703;51.248;-0.546;2023-03-03T02:05:09;102091;;;3.83;79.13
62632;BME280;48703;51.248;-0.546;2023-03-03T02:08:11;102091;;;3.82;79.28
62632;BME280;48703;51.248;-0.546;2023-03-03T02:11:13;102087;;;3.82;79.22
62632;BME280;48703;51.248;-0.546;2023-03-03T02:14:15;102091;;;3.82;79.18
62632;BME280;48703;51.248;-0.546;2023-03-03T02:17:17;102092;;;3.83;79.02
62632;BME280;48703;51.248;-0.546;2023-03-03T02:20:23;102097;;;3.83;78.96
62632;BME280;48703;51.248;-0.546;2023-03-03T02:23:21;102094;;;3.83;78.69
62632;BME280;48703;51.248;-0.546;2023-03-03T02:26:23;102096;;;3.85;78.66
62632;BME280;48703;51.248;-0.546;2023-03-03T02:29:24;102095;;;3.86;78.77
62632;BME280;48703;51.248;-0.546;2023-03-03T02:32:26;102105;;;3.85;78.65
62632;BME280;48703;51.248;-0.546;2023-03-03T02:35:30;102103;;;3.86;78.41
62632;BME280;48703;51.248;-0.546;2023-03-03T02:38:31;102099;;;3.86;78.53
62632;BME280;48703;51.248;-0.546;2023-03-03T02:41:33;102101;;;3.86;78.36
62632;BME280;48703;51.248;-0.546;2023-03-03T02:44:34;102101;;;3.86;78.44
62632;BME280;48703;51.248;-0.546;2023-03-03T02:47:36;102104;;;3.87;78.20
62632;BME280;48703;51.248;-0.546;2023-03-03T02:50:38;102104;;;3.87;78.02
62632;BME280;48703;51.248;-0.546;2023-03-03T02:53:40;102107;;;3.87;77.91
62632;BME280;48703;51.248;-0.546;2023-03-03T02:56:42;102106;;;3.87;78.11
62632;BME280;48703;51.248;-0.546;2023-03-03T02:59:44;102103;;;3.87;78.27
62632;BME280;48703;51.248;-0.546;2023-03-03T03:02:46;102109;;;3.86;77.99
62632;BME280;48703;51.248;-0.546;2023-03-03T03:05:48;102111;;;3.87;78.23
62632;BME280;48703;51.248;-0.546;2023-03-03T03:08:50;102113;;;3.88;78.28
62632;BME280;48703;51.248;-0.546;2023-03-03T03:11:51;102112;;;3.88;78.24
62632;BME280;48703;51.248;-0.546;2023-03-03T03:14:53;102116;;;3.87;78.11
62632;BME280;48703;51.248;-0.546;2023-03-03T03:17:55;102113;;;3.87;78.35
62632;BME280;48703;51.248;-0.546;2023-03-03T03:21:04;102118;;;3.87;78.36
62632;BME280;48703;51.248;-0.546;2023-03-03T03:23:59;102121;;;3.86;78.30
62632;BME280;48703;51.248;-0.546;2023-03-03T03:27:01;102118;;;3.85;78.44
62632;BME280;48703;51.248;-0.546;2023-03-03T03:30:03;102113;;;3.86;78.60
62632;BME280;48703;51.248;-0.546;2023-03-03T03:33:05;102114;;;3.85;78.36
62632;BME280;48703;51.248;-0.546;2023-03-03T03:36:07;102118;;;3.85;78.24
62632;BME280;48703;51.248;-0.546;2023-03-03T03:39:09;102118;;;3.86;78.37
62632;BME280;48703;51.248;-0.546;2023-03-03T03:42:11;102117;;;3.87;78.17
62632;BME280;48703;51.248;-0.546;2023-03-03T03:45:13;102118;;;3.87;78.12
62632;BME280;48703;51.248;-0.546;2023-03-03T03:48:15;102122;;;3.87;78.56
62632;BME280;48703;51.248;-0.546;2023-03-03T03:51:17;102123;;;3.87;78.35
62632;BME280;48703;51.248;-0.546;2023-03-03T03:54:19;102124;;;3.87;78.47
62632;BME280;48703;51.248;-0.546;2023-03-03T03:57:21;102123;;;3.87;78.18
62632;BME280;48703;51.248;-0.546;2023-03-03T04:00:23;102126;;;3.86;78.15
62632;BME280;48703;51.248;-0.546;2023-03-03T04:03:24;102127;;;3.86;78.27
62632;BME280;48703;51.248;-0.546;2023-03-03T04:06:26;102127;;;3.86;78.43
62632;BME280;48703;51.248;-0.546;2023-03-03T04:09:28;102130;;;3.85;78.25
62632;BME280;48703;51.248;-0.546;2023-03-03T04:12:30;102129;;;3.85;78.42
62632;BME280;48703;51.248;-0.546;2023-03-03T04:15:32;102129;;;3.85;78.44
62632;BME280;48703;51.248;-0.546;2023-03-03T04:18:34;102128;;;3.87;78.54
62632;BME280;48703;51.248;-0.546;2023-03-03T04:21:36;102127;;;3.86;78.54
62632;BME280;48703;51.248;-0.546;2023-03-03T04:24:38;102123;;;3.86;78.57
62632;BME280;48703;51.248;-0.546;2023-03-03T04:27:40;102125;;;3.87;78.62
62632;BME280;48703;51.248;-0.546;2023-03-03T04:30:42;102119;;;3.86;78.59
62632;BME280;48703;51.248;-0.546;2023-03-03T04:33:44;102117;;;3.85;78.38
62632;BME280;48703;51.248;-0.546;2023-03-03T04:36:46;102118;;;3.84;78.58
62632;BME280;48703;51.248;-0.546;2023-03-03T04:39:48;102117;;;3.84;78.79
62632;BME280;48703;51.248;-0.546;2023-03-03T04:42:49;102116;;;3.84;78.84
62632;BME280;48703;51.248;-0.546;2023-03-03T04:45:51;102113;;;3.84;78.92
62632;BME280;48703;51.248;-0.546;2023-03-03T04:48:53;102114;;;3.84;78.71
62632;BME280;48703;51.248;-0.546;2023-03-03T04:51:55;102116;;;3.83;78.89
62632;BME280;48703;51.248;-0.546;2023-03-03T04:54:57;102118;;;3.83;78.79
62632;BME280;48703;51.248;-0.546;2023-03-03T04:57:59;102117;;;3.83;78.83
62632;BME280;48703;51.248;-0.546;2023-03-03T05:01:01;102119;;;3.83;78.83
62632;BME280;48703;51.248;-0.546;2023-03-03T05:04:03;102116;;;3.84;78.94
62632;BME280;48703;51.248;-0.546;2023-03-03T05:07:05;102117;;;3.84;78.92
62632;BME280;48703;51.248;-0.546;2023-03-03T05:10:07;102120;;;3.84;78.89
62632;BME280;48703;51.248;-0.546;2023-03-03T05:13:09;102124;;;3.83;78.97
62632;BME280;48703;51.248;-0.546;2023-03-03T05:16:11;102126;;;3.83;79.00
62632;BME280;48703;51.248;-0.546;2023-03-03T05:19:13;102128;;;3.82;79.02
62632;BME280;48703;51.248;-0.546;2023-03-03T05:22:15;102129;;;3.82;78.98
62632;BME280;48703;51.248;-0.546;2023-03-03T05:25:17;102130;;;3.83;79.05
62632;BME280;48703;51.248;-0.546;2023-03-03T05:28:18;102130;;;3.83;78.92
62632;BME280;48703;51.248;-0.546;2023-03-03T05:31:20;102127;;;3.83;78.92
62632;BME280;48703;51.248;-0.546;2023-03-03T05:34:22;102128;;;3.83;78.84
62632;BME280;48703;51.248;-0.546;2023-03-03T05:37:24;102125;;;3.82;78.52
62632;BME280;48703;51.248;-0.546;2023-03-03T05:40:26;102124;;;3.83;78.82
62632;BME280;48703;51.248;-0.546;2023-03-03T05:43:28;102121;;;3.82;78.72
62632;BME280;48703;51.248;-0.546;2023-03-03T05:46:30;102120;;;3.82;78.73
62632;BME280;48703;51.248;-0.546;2023-03-03T05:49:32;102120;;;3.82;78.42
62632;BME280;48703;51.248;-0.546;2023-03-03T05:52:34;102119;;;3.82;78.59
62632;BME280;48703;51.248;-0.546;2023-03-03T05:55:36;102119;;;3.82;78.58
62632;BME280;48703;51.248;-0.546;2023-03-03T05:58:38;102123;;;3.82;78.46
62632;BME280;48703;51.248;-0.546;2023-03-03T06:01:40;102125;;;3.81;78.41
62632;BME280;48703;51.248;-0.546;2023-03-03T06:04:42;102125;;;3.80;78.61
62632;BME280;48703;51.248;-0.546;2023-03-03T06:07:43;102121;;;3.81;78.31
62632;BME280;48703;51.248;-0.546;2023-03-03T06:10:45;102121;;;3.81;78.11
62632;BME280;48703;51.248;-0.546;2023-03-03T06:13:47;102122;;;3.80;78.33
62632;BME280;48703;51.248;-0.546;2023-03-03T06:16:49;102124;;;3.79;78.16
62632;BME280;48703;51.248;-0.546;2023-03-03T06:19:51;102121;;;3.79;78.35
62632;BME280;48703;51.248;-0.546;2023-03-03T06:22:53;102122;;;3.79;78.39
62632;BME280;48703;51.248;-0.546;2023-03-03T06:25:55;102122;;;3.79;78.30
62632;BME280;48703;51.248;-0.546;2023-03-03T06:28:57;102123;;;3.78;78.36
62632;BME280;48703;51.248;-0.546;2023-03-03T06:31:59;102123;;;3.77;78.44
62632;BME280;48703;51.248;-0.546;2023-03-03T06:35:01;102121;;;3.75;78.42
62632;BME280;48703;51.248;-0.546;2023-03-03T06:38:03;102124;;;3.73;78.53
62632;BME280;48703;51.248;-0.546;2023-03-03T06:41:05;102127;;;3.74;78.33
62632;BME280;48703;51.248;-0.546;2023-03-03T06:44:07;102132;;;3.73;78.47
62632;BME280;48703;51.248;-0.546;2023-03-03T06:47:09;102136;;;3.74;78.37
62632;BME280;48703;51.248;-0.546;2023-03-03T06:50:11;102139;;;3.75;78.65
62632;BME280;48703;51.248;-0.546;2023-03-03T06:53:13;102139;;;3.74;78.39
62632;BME280;48703;51.248;-0.546;2023-03-03T06:56:14;102142;;;3.74;78.44
62632;BME280;48703;51.248;-0.546;2023-03-03T06:59:17;102145;;;3.74;78.31
62632;BME280;48703;51.248;-0.546;2023-03-03T07:02:18;102149;;;3.75;78.13
62632;BME280;48703;51.248;-0.546;2023-03-03T07:05:20;102151;;;3.75;78.01
62632;BME280;48703;51.248;-0.546;2023-03-03T07:08:23;102155;;;3.77;78.00
62632;BME280;48703;51.248;-0.546;2023-03-03T07:11:24;102159;;;3.77;77.95
62632;BME280;48703;51.248;-0.546;2023-03-03T07:14:27;102162;;;3.79;77.90
62632;BME280;48703;51.248;-0.546;2023-03-03T07:17:29;102162;;;3.80;77.92
62632;BME280;48703;51.248;-0.546;2023-03-03T07:20:31;102164;;;3.80;77.66
62632;BME280;48703;51.248;-0.546;2023-03-03T07:23:34;102168;;;3.81;77.10
62632;BME280;48703;51.248;-0.546;2023-03-03T07:26:34;102168;;;3.81;76.10
62632;BME280;48703;51.248;-0.546;2023-03-03T07:29:36;102173;;;3.82;75.98
62632;BME280;48703;51.248;-0.546;2023-03-03T07:32:38;102175;;;3.84;76.13
62632;BME280;48703;51.248;-0.546;2023-03-03T07:35:40;102179;;;3.86;76.91
62632;BME280;48703;51.248;-0.546;2023-03-03T07:38:43;102183;;;3.87;77.02
62632;BME280;48703;51.248;-0.546;2023-03-03T07:41:43;102186;;;3.88;76.98
62632;BME280;48703;51.248;-0.546;2023-03-03T07:44:45;102188;;;3.89;76.99
62632;BME280;48703;51.248;-0.546;2023-03-03T07:47:47;102189;;;3.92;77.49
62632;BME280;48703;51.248;-0.546;2023-03-03T07:50:49;102189;;;3.95;77.40
62632;BME280;48703;51.248;-0.546;2023-03-03T07:53:52;102191;;;3.96;77.26
62632;BME280;48703;51.248;-0.546;2023-03-03T07:56:54;102193;;;3.99;77.39
62632;BME280;48703;51.248;-0.546;2023-03-03T07:59:58;102194;;;4.02;77.49
62632;BME280;48703;51.248;-0.546;2023-03-03T08:02:57;102196;;;4.06;77.61
62632;BME280;48703;51.248;-0.546;2023-03-03T08:05:59;102199;;;4.08;77.37
62632;BME280;48703;51.248;-0.546;2023-03-03T08:09:01;102201;;;4.12;77.38
62632;BME280;48703;51.248;-0.546;2023-03-03T08:12:36;102205;;;4.14;77.00
62632;BME280;48703;51.248;-0.546;2023-03-03T08:15:21;102210;;;4.17;77.22
62632;BME280;48703;51.248;-0.546;2023-03-03T08:18:15;102211;;;4.19;77.31
62632;BME280;48703;51.248;-0.546;2023-03-03T08:21:09;102217;;;4.21;76.98
62632;BME280;48703;51.248;-0.546;2023-03-03T08:24:10;102221;;;4.24;76.83
62632;BME280;48703;51.248;-0.546;2023-03-03T08:27:12;102221;;;4.26;76.95
62632;BME280;48703;51.248;-0.546;2023-03-03T08:30:14;102225;;;4.29;76.26
62632;BME280;48703;51.248;-0.546;2023-03-03T08:33:16;102224;;;4.31;75.91
62632;BME280;48703;51.248;-0.546;2023-03-03T08:36:18;102230;;;4.35;76.35
62632;BME280;48703;51.248;-0.546;2023-03-03T08:39:20;102232;;;4.37;75.31
62632;BME280;48703;51.248;-0.546;2023-03-03T08:42:22;102235;;;4.40;75.33
62632;BME280;48703;51.248;-0.546;2023-03-03T08:45:24;102236;;;4.45;75.68
62632;BME280;48703;51.248;-0.546;2023-03-03T08:48:26;102236;;;4.47;75.70
62632;BME280;48703;51.248;-0.546;2023-03-03T08:51:28;102238;;;4.50;75.27
62632;BME280;48703;51.248;-0.546;2023-03-03T08:54:30;102237;;;4.52;74.94
62632;BME280;48703;51.248;-0.546;2023-03-03T08:57:32;102239;;;4.55;75.68
62632;BME280;48703;51.248;-0.546;2023-03-03T09:00:34;102235;;;4.58;75.72
62632;BME280;48703;51.248;-0.546;2023-03-03T09:03:36;102235;;;4.63;75.55
62632;BME280;48703;51.248;-0.546;2023-03-03T09:06:38;102236;;;4.65;75.44
62632;BME280;48703;51.248;-0.546;2023-03-03T09:09:39;102237;;;4.67;75.40
62632;BME280;48703;51.248;-0.546;2023-03-03T09:12:42;102238;;;4.71;75.22
62632;BME280;48703;51.248;-0.546;2023-03-03T09:15:44;102239;;;4.74;75.66
62632;BME280;48703;51.248;-0.546;2023-03-03T09:18:45;102240;;;4.79;75.58
62632;BME280;48703;51.248;-0.546;2023-03-03T09:21:47;102240;;;4.81;75.46
62632;BME280;48703;51.248;-0.546;2023-03-03T09:24:51;102242;;;4.81;74.98
62632;BME280;48703;51.248;-0.546;2023-03-03T09:27:51;102246;;;4.80;74.71
62632;BME280;48703;51.248;-0.546;2023-03-03T09:30:53;102250;;;4.81;74.85
62632;BME280;48703;51.248;-0.546;2023-03-03T09:33:55;102253;;;4.80;74.52
62632;BME280;48703;51.248;-0.546;2023-03-03T09:36:57;102257;;;4.80;74.92
62632;BME280;48703;51.248;-0.546;2023-03-03T09:39:59;102255;;;4.82;74.66
62632;BME280;48703;51.248;-0.546;2023-03-03T09:43:01;102257;;;4.83;74.60
62632;BME280;48703;51.248;-0.546;2023-03-03T09:46:03;102253;;;4.89;74.46
62632;BME280;48703;51.248;-0.546;2023-03-03T09:49:07;102251;;;4.95;73.72
62632;BME280;48703;51.248;-0.546;2023-03-03T09:52:10;102251;;;5.03;74.50
62632;BME280;48703;51.248;-0.546;2023-03-03T09:55:13;102254;;;5.10;73.44
62632;BME280;48703;51.248;-0.546;2023-03-03T09:58:14;102257;;;5.15;72.28
62632;BME280;48703;51.248;-0.546;2023-03-03T10:01:18;102257;;;5.24;73.30
62632;BME280;48703;51.248;-0.546;2023-03-03T10:04:19;102258;;;5.32;72.73
62632;BME280;48703;51.248;-0.546;2023-03-03T10:07:19;102261;;;5.40;72.84
62632;BME280;48703;51.248;-0.546;2023-03-03T10:10:22;102264;;;5.43;71.62
62632;BME280;48703;51.248;-0.546;2023-03-03T10:13:23;102268;;;5.52;72.60
62632;BME280;48703;51.248;-0.546;2023-03-03T10:16:28;102269;;;5.57;72.12
62632;BME280;48703;51.248;-0.546;2023-03-03T10:19:27;102269;;;5.62;71.49
62632;BME280;48703;51.248;-0.546;2023-03-03T10:22:27;102273;;;5.67;72.42
62632;BME280;48703;51.248;-0.546;2023-03-03T10:25:30;102274;;;5.67;71.89
62632;BME280;48703;51.248;-0.546;2023-03-03T10:28:38;102275;;;5.70;72.18
62632;BME280;48703;51.248;-0.546;2023-03-03T10:31:36;102273;;;5.73;72.03
62632;BME280;48703;51.248;-0.546;2023-03-03T10:34:40;102274;;;5.77;71.60
62632;BME280;48703;51.248;-0.546;2023-03-03T10:37:39;102274;;;5.77;70.29
62632;BME280;48703;51.248;-0.546;2023-03-03T10:40:39;102273;;;5.79;72.00
62632;BME280;48703;51.248;-0.546;2023-03-03T10:43:44;102274;;;5.83;72.31
62632;BME280;48703;51.248;-0.546;2023-03-03T10:46:45;102280;;;5.84;71.31
62632;BME280;48703;51.248;-0.546;2023-03-03T10:49:47;102278;;;5.84;70.38
62632;BME280;48703;51.248;-0.546;2023-03-03T10:52:45;102280;;;5.84;71.14
62632;BME280;48703;51.248;-0.546;2023-03-03T10:55:50;102282;;;5.86;70.03
62632;BME280;48703;51.248;-0.546;2023-03-03T10:58:52;102281;;;5.89;70.55
62632;BME280;48703;51.248;-0.546;2023-03-03T11:01:52;102283;;;5.93;70.94
62632;BME280;48703;51.248;-0.546;2023-03-03T11:04:56;102286;;;5.93;69.65
62632;BME280;48703;51.248;-0.546;2023-03-03T11:07:56;102286;;;5.95;70.88
62632;BME280;48703;51.248;-0.546;2023-03-03T11:10:59;102289;;;5.95;69.81
62632;BME280;48703;51.248;-0.546;2023-03-03T11:14:00;102292;;;5.96;70.15
62632;BME280;48703;51.248;-0.546;2023-03-03T11:17:02;102293;;;5.96;69.87
62632;BME280;48703;51.248;-0.546;2023-03-03T11:20:03;102292;;;5.97;70.12
62632;BME280;48703;51.248;-0.546;2023-03-03T11:23:07;102292;;;5.98;70.88
62632;BME280;48703;51.248;-0.546;2023-03-03T11:26:08;102290;;;5.98;70.26
62632;BME280;48703;51.248;-0.546;2023-03-03T11:29:12;102289;;;5.99;70.10
62632;BME280;48703;51.248;-0.546;2023-03-03T11:32:15;102289;;;6.03;70.22
62632;BME280;48703;51.248;-0.546;2023-03-03T11:35:16;102289;;;6.06;70.14
62632;BME280;48703;51.248;-0.546;2023-03-03T11:38:21;102291;;;6.09;70.54
62632;BME280;48703;51.248;-0.546;2023-03-03T11:41:20;102287;;;6.14;71.01
62632;BME280;48703;51.248;-0.546;2023-03-03T11:44:21;102286;;;6.21;71.37
62632;BME280;48703;51.248;-0.546;2023-03-03T11:47:21;102288;;;6.29;70.33
62632;BME280;48703;51.248;-0.546;2023-03-03T11:50:23;102289;;;6.35;70.14
62632;BME280;48703;51.248;-0.546;2023-03-03T11:53:36;102288;;;6.41;70.38
62632;BME280;48703;51.248;-0.546;2023-03-03T11:56:26;102287;;;6.44;70.13
62632;BME280;48703;51.248;-0.546;2023-03-03T11:59:40;102286;;;6.45;68.89
62632;BME280;48703;51.248;-0.546;2023-03-03T12:02:33;102286;;;6.45;69.60
62632;BME280;48703;51.248;-0.546;2023-03-03T12:06:07;102286;;;6.44;69.12
62632;BME280;48703;51.248;-0.546;2023-03-03T12:08:36;102284;;;6.44;69.01
62632;BME280;48703;51.248;-0.546;2023-03-03T12:11:38;102283;;;6.42;69.20
62632;BME280;48703;51.248;-0.546;2023-03-03T12:14:43;102281;;;6.40;68.05
62632;BME280;48703;51.248;-0.546;2023-03-03T12:17:44;102279;;;6.41;69.47
62632;BME280;48703;51.248;-0.546;2023-03-03T12:20:43;102276;;;6.43;69.28
62632;BME280;48703;51.248;-0.546;2023-03-03T12:23:47;102274;;;6.44;69.56
62632;BME280;48703;51.248;-0.546;2023-03-03T12:26:46;102270;;;6.46;69.14
62632;BME280;48703;51.248;-0.546;2023-03-03T12:29:49;102270;;;6.48;69.27
62632;BME280;48703;51.248;-0.546;2023-03-03T12:32:53;102269;;;6.52;69.77
62632;BME280;48703;51.248;-0.546;2023-03-03T12:35:54;102266;;;6.53;69.20
62632;BME280;48703;51.248;-0.546;2023-03-03T12:38:55;102263;;;6.55;68.63
62632;BME280;48703;51.248;-0.546;2023-03-03T12:41:56;102263;;;6.56;68.49
62632;BME280;48703;51.248;-0.546;2023-03-03T12:44:59;102263;;;6.55;68.58
62632;BME280;48703;51.248;-0.546;2023-03-03T12:47:59;102259;;;6.55;67.96
62632;BME280;48703;51.248;-0.546;2023-03-03T12:51:01;102262;;;6.55;67.29
62632;BME280;48703;51.248;-0.546;2023-03-03T12:54:08;102260;;;6.52;66.57
62632;BME280;48703;51.248;-0.546;2023-03-03T12:57:07;102259;;;6.53;67.85
62632;BME280;48703;51.248;-0.546;2023-03-03T13:00:17;102260;;;6.53;67.96
62632;BME280;48703;51.248;-0.546;2023-03-03T13:03:09;102258;;;6.55;68.16
62632;BME280;48703;51.248;-0.546;2023-03-03T13:06:13;102260;;;6.53;67.10
62632;BME280;48703;51.248;-0.546;2023-03-03T13:09:17;102260;;;6.52;66.84
62632;BME280;48703;51.248;-0.546;2023-03-03T13:12:19;102259;;;6.50;65.60
62632;BME280;48703;51.248;-0.546;2023-03-03T13:15:17;102262;;;6.54;65.94
62632;BME280;48703;51.248;-0.546;2023-03-03T13:18:22;102261;;;6.52;65.97
62632;BME280;48703;51.248;-0.546;2023-03-03T13:21:20;102259;;;6.55;66.68
62632;BME280;48703;51.248;-0.546;2023-03-03T13:24:22;102256;;;6.55;63.81
62632;BME280;48703;51.248;-0.546;2023-03-03T13:27:24;102255;;;6.52;65.27
62632;BME280;48703;51.248;-0.546;2023-03-03T13:30:26;102253;;;6.56;65.82
62632;BME280;48703;51.248;-0.546;2023-03-03T13:33:28;102251;;;6.59;65.88
62632;BME280;48703;51.248;-0.546;2023-03-03T13:36:32;102248;;;6.62;65.25
62632;BME280;48703;51.248;-0.546;2023-03-03T13:39:32;102248;;;6.65;65.11
62632;BME280;48703;51.248;-0.546;2023-03-03T13:42:36;102248;;;6.67;65.67
62632;BME280;48703;51.248;-0.546;2023-03-03T13:45:36;102252;;;6.66;64.08
62632;BME280;48703;51.248;-0.546;2023-03-03T13:48:42;102251;;;6.66;64.95
62632;BME280;48703;51.248;-0.546;2023-03-03T13:51:41;102250;;;6.68;65.62
62632;BME280;48703;51.248;-0.546;2023-03-03T13:54:46;102252;;;6.66;64.40
62632;BME280;48703;51.248;-0.546;2023-03-03T13:57:44;102252;;;6.64;64.76
62632;BME280;48703;51.248;-0.546;2023-03-03T14:00:49;102254;;;6.65;65.41
62632;BME280;48703;51.248;-0.546;2023-03-03T14:03:50;102252;;;6.63;65.12
62632;BME280;48703;51.248;-0.546;2023-03-03T14:06:50;102248;;;6.60;64.72
62632;BME280;48703;51.248;-0.546;2023-03-03T14:09:54;102248;;;6.61;65.52
62632;BME280;48703;51.248;-0.546;2023-03-03T14:12:56;102244;;;6.62;65.06
62632;BME280;48703;51.248;-0.546;2023-03-03T14:15:55;102245;;;6.60;64.52
62632;BME280;48703;51.248;-0.546;2023-03-03T14:18:57;102242;;;6.62;65.22
62632;BME280;48703;51.248;-0.546;2023-03-03T14:22:03;102243;;;6.62;64.95
62632;BME280;48703;51.248;-0.546;2023-03-03T14:25:02;102240;;;6.61;65.13
62632;BME280;48703;51.248;-0.546;2023-03-03T14:28:07;102238;;;6.59;65.08
62632;BME280;48703;51.248;-0.546;2023-03-03T14:31:09;102235;;;6.56;64.74
62632;BME280;48703;51.248;-0.546;2023-03-03T14:34:13;102234;;;6.52;64.83
62632;BME280;48703;51.248;-0.546;2023-03-03T14:37:19;102233;;;6.55;66.04
62632;BME280;48703;51.248;-0.546;2023-03-03T14:40:14;102228;;;6.55;65.32
62632;BME280;48703;51.248;-0.546;2023-03-03T14:43:21;102227;;;6.53;64.67
62632;BME280;48703;51.248;-0.546;2023-03-03T14:46:21;102226;;;6.50;65.64
62632;BME280;48703;51.248;-0.546;2023-03-03T14:49:28;102224;;;6.48;65.36
62632;BME280;48703;51.248;-0.546;2023-03-03T14:52:19;102220;;;6.48;65.64
62632;BME280;48703;51.248;-0.546;2023-03-03T14:55:29;102219;;;6.49;65.58
62632;BME280;48703;51.248;-0.546;2023-03-03T14:58:23;102218;;;6.46;66.30
62632;BME280;48703;51.248;-0.546;2023-03-03T15:01:29;102216;;;6.44;65.78
62632;BME280;48703;51.248;-0.546;2023-03-03T15:04:26;102209;;;6.42;66.77
62632;BME280;48703;51.248;-0.546;2023-03-03T15:07:29;102206;;;6.38;67.61
62632;BME280;48703;51.248;-0.546;2023-03-03T15:10:33;102204;;;6.36;67.97
62632;BME280;48703;51.248;-0.546;2023-03-03T15:13:33;102201;;;6.38;68.94
62632;BME280;48703;51.248;-0.546;2023-03-03T15:16:33;102197;;;6.39;68.83
62632;BME280;48703;51.248;-0.546;2023-03-03T15:19:43;102194;;;6.30;69.20
62632;BME280;48703;51.248;-0.546;2023-03-03T15:22:45;102196;;;6.31;69.70
62632;BME280;48703;51.248;-0.546;2023-03-03T15:25:43;102196;;;6.29;69.30
62632;BME280;48703;51.248;-0.546;2023-03-03T15:28:53;102195;;;6.28;69.47
62632;BME280;48703;51.248;-0.546;2023-03-03T15:31:45;102194;;;6.26;69.68
62632;BME280;48703;51.248;-0.546;2023-03-03T15:34:46;102195;;;6.27;69.70
62632;BME280;48703;51.248;-0.546;2023-03-03T15:37:48;102193;;;6.27;70.02
62632;BME280;48703;51.248;-0.546;2023-03-03T15:40:50;102192;;;6.27;69.10
62632;BME280;48703;51.248;-0.546;2023-03-03T15:43:56;102192;;;6.24;69.64
62632;BME280;48703;51.248;-0.546;2023-03-03T15:46:59;102193;;;6.24;69.24
62632;BME280;48703;51.248;-0.546;2023-03-03T15:50:05;102195;;;6.23;69.90
62632;BME280;48703;51.248;-0.546;2023-03-03T15:53:00;102195;;;6.21;69.02
62632;BME280;48703;51.248;-0.546;2023-03-03T15:56:03;102192;;;6.21;69.71
62632;BME280;48703;51.248;-0.546;2023-03-03T15:59:11;102194;;;6.20;69.64
62632;BME280;48703;51.248;-0.546;2023-03-03T16:02:06;102193;;;6.20;69.73
62632;BME280;48703;51.248;-0.546;2023-03-03T16:05:07;102194;;;6.19;69.38
62632;BME280;48703;51.248;-0.546;2023-03-03T16:08:08;102196;;;6.16;68.54
62632;BME280;48703;51.248;-0.546;2023-03-03T16:11:09;102192;;;6.15;68.94
62632;BME280;48703;51.248;-0.546;2023-03-03T16:14:23;102190;;;6.16;68.85
62632;BME280;48703;51.248;-0.546;2023-03-03T16:17:16;102188;;;6.15;68.61
62632;BME280;48703;51.248;-0.546;2023-03-03T16:20:17;102191;;;6.14;68.10
62632;BME280;48703;51.248;-0.546;2023-03-03T16:23:17;102193;;;6.12;67.66
62632;BME280;48703;51.248;-0.546;2023-03-03T16:26:23;102194;;;6.11;68.37
62632;BME280;48703;51.248;-0.546;2023-03-03T16:29:24;102196;;;6.11;68.68
62632;BME280;48703;51.248;-0.546;2023-03-03T16:32:23;102198;;;6.10;67.77